createdAt,value
2023-10-24T00:00:07.779Z,13.90
2023-10-24T00:02:35.113Z,13.35
2023-10-24T00:05:01.974Z,13.40
2023-10-24T00:07:28.856Z,12.93
2023-10-24T00:09:55.731Z,12.98
2023-10-24T00:12:22.487Z,13.18
2023-10-24T00:14:49.993Z,12.77
2023-10-24T00:17:16.876Z,13.00
2023-10-24T00:19:45.955Z,13.85
2023-10-24T00:22:12.780Z,12.83
2023-10-24T00:24:39.678Z,13.07
2023-10-24T00:27:06.647Z,12.70
2023-10-24T00:29:33.497Z,12.48
2023-10-24T00:32:00.372Z,13.02
2023-10-24T00:34:27.319Z,12.50
2023-10-24T00:36:54.203Z,12.93
2023-10-24T00:39:20.973Z,13.07
2023-10-24T00:41:51.352Z,11.60
2023-10-24T00:44:18.923Z,12.50
2023-10-24T00:46:45.908Z,12.13
2023-10-24T00:49:12.935Z,12.32
2023-10-24T00:51:42.108Z,11.43
2023-10-24T00:54:11.520Z,12.68
2023-10-24T00:56:39.681Z,12.63
2023-10-24T00:59:07.680Z,13.23
2023-10-24T01:01:35.652Z,12.00
2023-10-24T01:06:29.965Z,13.23
2023-10-24T01:08:57.184Z,10.55
2023-10-24T01:11:25.353Z,10.95
2023-10-24T01:13:52.225Z,12.35
2023-10-24T01:16:19.772Z,11.63
2023-10-24T01:18:46.636Z,10.25
2023-10-24T01:21:14.253Z,10.15
2023-10-24T01:23:41.687Z,10.43
2023-10-24T01:26:11.430Z,10.63
2023-10-24T01:28:38.608Z,10.55
2023-10-24T01:31:05.428Z,9.82
2023-10-24T01:33:32.262Z,9.35
2023-10-24T01:35:59.066Z,9.98
2023-10-24T01:38:25.877Z,9.75
2023-10-24T01:40:53.106Z,10.38
2023-10-24T01:43:21.283Z,9.50
2023-10-24T01:45:48.744Z,10.75
2023-10-24T01:48:15.535Z,11.10
2023-10-24T01:50:42.338Z,11.43
2023-10-24T01:53:09.142Z,10.10
2023-10-24T01:55:35.947Z,10.75
2023-10-24T01:58:02.863Z,11.02
2023-10-24T02:00:29.642Z,10.55
2023-10-24T02:02:56.650Z,10.27
2023-10-24T02:05:23.491Z,11.50
2023-10-24T02:07:50.585Z,10.98
2023-10-24T02:10:17.655Z,10.90
2023-10-24T02:12:44.522Z,10.10
2023-10-24T02:15:11.941Z,11.82
2023-10-24T02:17:39.810Z,10.30
2023-10-24T02:20:08.559Z,9.75
2023-10-24T02:22:35.540Z,9.07
2023-10-24T02:25:02.483Z,10.02
2023-10-24T02:27:29.330Z,10.00
2023-10-24T02:29:56.102Z,10.70
2023-10-24T02:32:23.367Z,10.35
2023-10-24T02:34:50.871Z,10.45
2023-10-24T02:37:17.973Z,10.88
2023-10-24T02:39:44.855Z,13.18
2023-10-24T02:42:11.624Z,11.05
2023-10-24T02:44:38.494Z,12.73
2023-10-24T02:47:05.441Z,11.13
2023-10-24T02:49:33.563Z,11.30
2023-10-24T02:52:00.332Z,11.02
2023-10-24T02:54:27.083Z,10.50
2023-10-24T02:56:58.872Z,10.57
2023-10-24T02:59:25.615Z,11.77
2023-10-24T03:01:52.914Z,10.95
2023-10-24T03:04:19.647Z,11.15
2023-10-24T03:06:46.433Z,10.73
2023-10-24T03:09:13.262Z,11.45
2023-10-24T03:11:40.110Z,10.35
2023-10-24T03:14:08.647Z,10.73
2023-10-24T03:16:35.960Z,10.80
2023-10-24T03:19:02.732Z,10.85
2023-10-24T03:21:29.548Z,11.05
2023-10-24T03:23:57.050Z,10.30
2023-10-24T03:26:26.592Z,11.88
2023-10-24T03:28:53.408Z,9.27
2023-10-24T03:31:20.302Z,10.20
2023-10-24T03:33:47.204Z,9.98
2023-10-24T03:36:16.671Z,11.45
2023-10-24T03:38:44.642Z,10.73
2023-10-24T03:41:11.391Z,10.82
2023-10-24T03:43:38.372Z,10.18
2023-10-24T03:46:09.025Z,9.95
2023-10-24T03:48:36.364Z,10.07
2023-10-24T03:51:03.223Z,9.98
2023-10-24T03:53:30.574Z,10.25
2023-10-24T03:56:00.904Z,11.20
2023-10-24T03:58:28.490Z,10.15
2023-10-24T04:00:56.115Z,10.00
2023-10-24T04:03:23.317Z,10.32
2023-10-24T04:05:50.332Z,10.52
2023-10-24T04:08:17.268Z,10.40
2023-10-24T04:10:43.994Z,9.82
2023-10-24T04:13:10.834Z,10.88
2023-10-24T04:15:37.969Z,9.57
2023-10-24T04:18:07.654Z,10.50
2023-10-24T04:20:34.504Z,9.20
2023-10-24T04:23:04.068Z,10.45
2023-10-24T04:25:31.728Z,10.23
2023-10-24T04:28:00.209Z,9.77
2023-10-24T04:30:28.696Z,9.70
2023-10-24T04:32:56.389Z,9.13
2023-10-24T04:35:23.348Z,8.60
2023-10-24T04:37:50.209Z,9.88
2023-10-24T04:40:17.196Z,9.90
2023-10-24T04:42:43.990Z,9.10
2023-10-24T04:45:10.830Z,9.18
2023-10-24T04:47:37.615Z,8.50
2023-10-24T04:50:06.589Z,9.07
2023-10-24T04:52:33.380Z,8.65
2023-10-24T04:55:00.208Z,8.98
2023-10-24T04:57:26.966Z,8.98
2023-10-24T04:59:53.789Z,8.48
2023-10-24T05:02:20.630Z,8.27
2023-10-24T05:04:47.481Z,8.35
2023-10-24T05:07:14.890Z,7.63
2023-10-24T05:09:44.132Z,7.32
2023-10-24T05:12:12.403Z,7.67
2023-10-24T05:14:39.331Z,8.90
2023-10-24T05:17:07.206Z,8.15
2023-10-24T05:19:34.023Z,7.03
2023-10-24T05:22:00.762Z,8.85
2023-10-24T05:24:27.484Z,7.25
2023-10-24T05:26:55.826Z,8.50
2023-10-24T05:29:25.085Z,8.77
2023-10-24T05:31:52.121Z,9.73
2023-10-24T05:34:19.101Z,7.07
2023-10-24T05:36:45.980Z,10.73
2023-10-24T05:39:12.731Z,9.10
2023-10-24T05:41:40.017Z,8.10
2023-10-24T05:44:06.764Z,8.45
2023-10-24T05:46:33.568Z,9.75
2023-10-24T05:49:01.947Z,10.18
2023-10-24T05:51:33.928Z,10.85
2023-10-24T05:54:01.578Z,12.23
2023-10-24T05:56:28.348Z,10.65
2023-10-24T05:58:55.953Z,12.48
2023-10-24T06:01:23.620Z,8.68
2023-10-24T06:03:50.717Z,9.07
2023-10-24T06:06:25.391Z,9.25
2023-10-24T06:08:53.077Z,10.20
2023-10-24T06:11:20.374Z,8.35
2023-10-24T06:13:47.224Z,10.20
2023-10-24T06:16:18.802Z,9.13
2023-10-24T06:18:45.702Z,9.35
2023-10-24T06:21:13.308Z,8.45
2023-10-24T06:23:40.118Z,8.52
2023-10-24T06:26:18.011Z,8.80
2023-10-24T06:28:46.181Z,7.95
2023-10-24T06:31:14.325Z,7.13
2023-10-24T06:33:41.866Z,8.32
2023-10-24T06:36:09.048Z,8.20
2023-10-24T06:38:35.860Z,7.35
2023-10-24T06:41:03.245Z,9.73
2023-10-24T06:43:30.105Z,9.15
2023-10-24T06:45:56.969Z,8.13
2023-10-24T06:48:23.746Z,8.38
2023-10-24T06:50:50.570Z,7.55
2023-10-24T06:53:17.315Z,7.97
2023-10-24T06:55:44.093Z,8.20
2023-10-24T06:58:10.938Z,8.77
2023-10-24T07:00:37.701Z,8.38
2023-10-24T07:03:05.921Z,16.52
2023-10-24T07:05:34.440Z,9.27
2023-10-24T07:08:01.259Z,8.55
2023-10-24T07:10:28.127Z,7.50
2023-10-24T07:12:54.955Z,8.80
2023-10-24T07:15:21.868Z,7.80
2023-10-24T07:17:48.660Z,8.13
2023-10-24T07:20:15.462Z,7.13
2023-10-24T07:22:42.859Z,6.78
2023-10-24T07:25:10.129Z,8.07
2023-10-24T07:27:36.937Z,8.20
2023-10-24T07:30:03.959Z,6.97
2023-10-24T07:32:30.774Z,6.97
2023-10-24T07:34:57.872Z,6.70
2023-10-24T07:37:25.747Z,6.63
2023-10-24T07:39:52.961Z,6.28
2023-10-24T07:42:19.907Z,6.18
2023-10-24T07:44:46.718Z,6.47
2023-10-24T07:47:13.621Z,5.93
2023-10-24T07:49:40.740Z,6.40
2023-10-24T07:52:08.248Z,6.25
2023-10-24T07:54:35.815Z,5.55
2023-10-24T07:57:06.028Z,5.97
2023-10-24T07:59:33.105Z,6.35
2023-10-24T08:02:00.956Z,6.40
2023-10-24T08:04:28.600Z,6.25
2023-10-24T08:06:55.779Z,5.22
2023-10-24T08:09:22.802Z,7.03
2023-10-24T08:11:49.645Z,5.03
2023-10-24T08:14:17.107Z,5.82
2023-10-24T08:16:43.988Z,5.38
2023-10-24T08:19:10.978Z,5.55
2023-10-24T08:21:37.761Z,5.03
2023-10-24T08:24:05.247Z,5.22
2023-10-24T08:26:32.196Z,5.75
2023-10-24T08:28:59.174Z,4.93
2023-10-24T08:31:26.427Z,4.35
2023-10-24T08:33:53.524Z,4.25
2023-10-24T08:36:20.372Z,4.85
2023-10-24T08:38:48.091Z,4.43
2023-10-24T08:41:15.930Z,4.53
2023-10-24T08:43:44.193Z,4.35
2023-10-24T08:46:11.885Z,4.55
2023-10-24T08:48:40.234Z,4.40
2023-10-24T08:51:07.312Z,4.07
2023-10-24T08:53:34.195Z,3.53
2023-10-24T08:56:03.401Z,4.05
2023-10-24T08:58:33.542Z,3.08
2023-10-24T09:01:01.847Z,4.10
2023-10-24T09:03:30.330Z,3.30
2023-10-24T09:05:58.537Z,3.85
2023-10-24T09:08:26.284Z,3.60
2023-10-24T09:10:53.332Z,3.75
2023-10-24T09:13:20.195Z,5.13
2023-10-24T09:16:05.844Z,3.97
2023-10-24T09:18:35.445Z,3.55
2023-10-24T09:21:02.588Z,3.00
2023-10-24T09:23:29.446Z,3.72
2023-10-24T09:25:56.221Z,6.40
2023-10-24T09:28:24.843Z,2.65
2023-10-24T09:30:51.662Z,2.35
2023-10-24T09:33:18.641Z,2.70
2023-10-24T09:35:54.821Z,2.70
2023-10-24T09:38:31.727Z,2.38
2023-10-24T09:43:25.609Z,2.38
2023-10-24T09:45:53.468Z,2.60
2023-10-24T09:48:23.518Z,2.60
2023-10-24T09:50:51.874Z,2.65
2023-10-24T09:53:21.400Z,3.10
2023-10-24T09:58:19.621Z,2.25
2023-10-24T10:00:49.900Z,2.47
2023-10-24T10:03:17.647Z,2.60
2023-10-24T10:05:46.184Z,2.35
2023-10-24T10:08:16.536Z,3.13
2023-10-24T10:10:46.823Z,1.90
2023-10-24T10:13:17.642Z,2.25
2023-10-24T10:16:05.371Z,2.50
2023-10-24T10:18:53.465Z,3.00
2023-10-24T10:21:45.634Z,1.92
2023-10-24T10:24:25.918Z,1.70
2023-10-24T10:27:01.148Z,4.18
2023-10-24T10:30:12.848Z,1.92
2023-10-24T10:33:06.304Z,1.90
2023-10-24T10:36:04.054Z,1.98
2023-10-24T10:38:41.946Z,2.55
2023-10-24T10:41:29.267Z,2.17
2023-10-24T10:44:00.801Z,2.63
2023-10-24T10:46:29.382Z,2.40
2023-10-24T10:49:08.381Z,2.65
2023-10-24T10:51:37.718Z,2.20
2023-10-24T10:54:30.981Z,2.00
2023-10-24T10:57:02.772Z,2.58
2023-10-24T10:59:58.986Z,2.28
2023-10-24T11:02:56.711Z,2.10
2023-10-24T11:05:38.598Z,2.85
2023-10-24T11:08:09.636Z,2.88
2023-10-24T11:10:55.043Z,2.25
2023-10-24T11:13:36.130Z,3.38
2023-10-24T11:16:04.101Z,2.67
2023-10-24T11:18:32.815Z,2.42
2023-10-24T11:20:59.943Z,2.53
2023-10-24T11:23:29.878Z,2.65
2023-10-24T11:25:56.704Z,2.47
2023-10-24T11:28:23.940Z,2.55
2023-10-24T11:30:50.956Z,2.42
2023-10-24T11:33:19.737Z,2.58
2023-10-24T11:35:49.191Z,2.28
2023-10-24T11:38:16.246Z,2.17
2023-10-24T11:40:47.357Z,2.80
2023-10-24T11:43:16.280Z,2.63
2023-10-24T11:45:43.180Z,2.92
2023-10-24T11:48:10.735Z,2.45
2023-10-24T11:50:55.690Z,2.50
2023-10-24T11:53:24.258Z,2.40
2023-10-24T11:55:51.511Z,2.00
2023-10-24T11:58:18.959Z,2.33
2023-10-24T12:00:45.787Z,2.50
2023-10-24T12:03:13.081Z,2.45
2023-10-24T12:05:52.576Z,2.33
2023-10-24T12:08:24.615Z,2.20
2023-10-24T12:10:56.090Z,2.42
2023-10-24T12:13:24.929Z,2.45
2023-10-24T12:15:52.615Z,4.43
2023-10-24T12:18:20.829Z,2.60
2023-10-24T12:20:50.920Z,2.35
2023-10-24T12:23:19.916Z,2.17
2023-10-24T12:25:47.094Z,1.55
2023-10-24T12:28:13.902Z,1.70
2023-10-24T12:30:44.136Z,1.92
2023-10-24T12:33:12.710Z,3.67
2023-10-24T12:35:39.430Z,1.65
2023-10-24T12:38:07.038Z,2.15
2023-10-24T12:40:34.183Z,2.15
2023-10-24T12:43:01.026Z,2.10
2023-10-24T12:45:27.839Z,2.75
2023-10-24T12:47:55.077Z,2.42
2023-10-24T12:50:21.967Z,2.50
2023-10-24T12:52:49.404Z,2.42
2023-10-24T12:55:16.765Z,2.05
2023-10-24T12:57:43.592Z,2.65
2023-10-24T13:00:10.664Z,2.72
2023-10-24T13:02:37.459Z,1.95
2023-10-24T13:05:04.443Z,2.00
2023-10-24T13:07:31.302Z,2.58
2023-10-24T13:09:58.236Z,2.08
2023-10-24T13:12:25.140Z,2.10
2023-10-24T13:14:51.905Z,2.20
2023-10-24T13:17:20.698Z,2.63
2023-10-24T13:19:48.665Z,2.20
2023-10-24T13:22:15.546Z,2.40
2023-10-24T13:24:42.285Z,2.22
2023-10-24T13:27:09.029Z,2.08
2023-10-24T13:29:35.779Z,2.20
2023-10-24T13:32:03.394Z,2.15
2023-10-24T13:37:01.364Z,2.00
2023-10-24T13:39:29.148Z,2.53
2023-10-24T13:41:55.926Z,2.17
2023-10-24T13:44:23.035Z,2.38
2023-10-24T13:46:56.308Z,2.17
2023-10-24T13:49:23.096Z,2.33
2023-10-24T13:51:50.879Z,2.40
2023-10-24T13:54:17.628Z,2.70
2023-10-24T13:56:44.675Z,2.53
2023-10-24T13:59:11.450Z,2.50
2023-10-24T14:01:38.671Z,2.58
2023-10-24T14:04:06.945Z,2.65
2023-10-24T14:06:33.733Z,2.70
2023-10-24T14:09:01.154Z,3.05
2023-10-24T14:11:28.215Z,3.28
2023-10-24T14:13:55.051Z,2.50
2023-10-24T14:16:22.905Z,2.90
2023-10-24T14:18:50.001Z,2.50
2023-10-24T14:21:17.163Z,2.50
2023-10-24T14:23:44.001Z,2.28
2023-10-24T14:26:12.590Z,2.90
2023-10-24T14:28:40.968Z,3.00
2023-10-24T14:31:07.803Z,3.03
2023-10-24T14:33:34.647Z,4.03
2023-10-24T14:36:02.670Z,2.97
2023-10-24T14:38:29.732Z,3.30
2023-10-24T14:40:58.665Z,3.45
2023-10-24T14:43:25.552Z,3.13
2023-10-24T14:45:53.399Z,3.05
2023-10-24T14:48:20.412Z,3.10
2023-10-24T14:50:47.212Z,3.47
2023-10-24T14:53:14.247Z,3.90
2023-10-24T14:55:41.784Z,3.70
2023-10-24T14:58:09.179Z,3.58
2023-10-24T15:00:37.338Z,3.90
2023-10-24T15:03:04.789Z,4.22
2023-10-24T15:05:31.657Z,3.65
2023-10-24T15:07:58.513Z,3.63
2023-10-24T15:10:25.332Z,4.38
2023-10-24T15:12:55.079Z,5.95
2023-10-24T15:17:53.909Z,5.00
2023-10-24T15:22:47.807Z,5.05
2023-10-24T15:25:14.991Z,5.07
2023-10-24T15:27:41.805Z,5.35
2023-10-24T15:30:10.991Z,5.15
2023-10-24T15:32:38.290Z,13.85
2023-10-24T15:35:08.897Z,5.47
2023-10-24T15:37:35.698Z,6.40
2023-10-24T15:40:02.481Z,5.35
2023-10-24T15:42:30.257Z,6.20
2023-10-24T15:44:59.741Z,5.72
2023-10-24T15:47:26.563Z,6.35
2023-10-24T15:49:56.554Z,7.00
2023-10-24T15:52:24.204Z,7.35
2023-10-24T15:54:51.093Z,7.63
2023-10-24T15:57:20.013Z,7.38
2023-10-24T15:59:47.862Z,6.67
2023-10-24T16:02:16.214Z,7.75
2023-10-24T16:04:44.662Z,7.47
2023-10-24T16:07:11.605Z,7.85
2023-10-24T16:09:38.468Z,7.82
2023-10-24T16:12:05.770Z,8.15
2023-10-24T16:14:32.602Z,8.27
2023-10-24T16:17:00.519Z,8.38
2023-10-24T16:19:27.732Z,8.60
2023-10-24T16:21:54.593Z,8.60
2023-10-24T16:24:21.390Z,8.73
2023-10-24T16:26:48.145Z,8.10
2023-10-24T16:29:15.674Z,8.32
2023-10-24T16:31:42.625Z,8.75
2023-10-24T16:34:09.462Z,7.78
2023-10-24T16:36:37.359Z,9.05
2023-10-24T16:39:05.883Z,8.85
2023-10-24T16:41:32.698Z,8.40
2023-10-24T16:44:03.469Z,7.95
2023-10-24T16:46:30.372Z,8.18
2023-10-24T16:48:57.173Z,7.72
2023-10-24T16:51:23.919Z,8.85
2023-10-24T16:53:51.038Z,8.93
2023-10-24T16:56:17.929Z,8.45
2023-10-24T16:58:44.731Z,8.95
2023-10-24T17:01:11.729Z,9.27
2023-10-24T17:03:38.782Z,8.82
2023-10-24T17:06:05.789Z,9.63
2023-10-24T17:08:33.571Z,8.90
2023-10-24T17:11:03.061Z,9.80
2023-10-24T17:13:30.011Z,9.07
2023-10-24T17:15:57.820Z,10.25
2023-10-24T17:18:26.110Z,9.50
2023-10-24T17:20:53.352Z,9.18
2023-10-24T17:23:20.648Z,10.75
2023-10-24T17:25:47.613Z,10.63
2023-10-24T17:28:20.314Z,9.70
2023-10-24T17:30:48.252Z,9.38
2023-10-24T17:33:15.103Z,13.05
2023-10-24T17:35:43.775Z,10.27
2023-10-24T17:38:10.558Z,10.10
2023-10-24T17:40:42.535Z,10.13
2023-10-24T17:43:09.469Z,10.77
2023-10-24T17:45:45.528Z,11.07
2023-10-24T17:48:12.583Z,10.95
2023-10-24T17:50:40.646Z,11.25
2023-10-24T17:53:07.562Z,13.25
2023-10-24T17:55:38.873Z,11.55
2023-10-24T17:58:06.522Z,10.57
2023-10-24T18:00:34.811Z,11.93
2023-10-24T18:03:02.264Z,11.18
2023-10-24T18:05:30.135Z,12.80
2023-10-24T18:07:57.326Z,11.18
2023-10-24T18:10:24.260Z,11.68
2023-10-24T18:12:52.310Z,11.18
2023-10-24T18:15:20.395Z,11.77
2023-10-24T18:17:47.193Z,13.63
2023-10-24T18:20:14.015Z,11.82
2023-10-24T18:22:42.125Z,12.35
2023-10-24T18:25:11.871Z,12.05
2023-10-24T18:27:38.654Z,12.52
2023-10-24T18:30:07.185Z,11.90
2023-10-24T18:32:35.140Z,11.25
2023-10-24T18:35:02.197Z,13.48
2023-10-24T18:37:29.348Z,12.85
2023-10-24T18:39:56.141Z,13.00
2023-10-24T18:42:30.306Z,11.82
2023-10-24T18:47:26.319Z,13.82
2023-10-24T18:49:53.197Z,12.82
2023-10-24T18:52:20.136Z,13.57
2023-10-24T18:54:46.916Z,13.40
2023-10-24T18:57:13.659Z,13.05
2023-10-24T18:59:40.664Z,16.42
2023-10-24T19:02:07.836Z,12.43
2023-10-24T19:04:36.643Z,13.10
2023-10-24T19:07:04.497Z,13.13
2023-10-24T19:09:31.377Z,12.95
2023-10-24T19:11:58.705Z,13.80
2023-10-24T19:14:25.696Z,12.82
2023-10-24T19:16:52.803Z,12.77
2023-10-24T19:19:19.934Z,14.52
2023-10-24T19:21:47.055Z,13.43
2023-10-24T19:24:14.337Z,14.18
2023-10-24T19:26:46.014Z,13.63
2023-10-24T19:29:13.031Z,11.82
2023-10-24T19:31:40.109Z,14.52
2023-10-24T19:34:07.706Z,12.55
2023-10-24T19:36:34.945Z,15.50
2023-10-24T19:39:02.041Z,13.45
2023-10-24T19:41:29.825Z,13.98
2023-10-24T19:43:56.905Z,13.82
2023-10-24T19:46:25.353Z,13.88
2023-10-24T19:48:55.187Z,13.05
2023-10-24T19:51:22.197Z,13.90
2023-10-24T19:53:49.177Z,12.80
2023-10-24T19:56:18.047Z,14.43
2023-10-24T19:58:47.653Z,14.57
2023-10-24T20:01:16.584Z,13.98
2023-10-24T20:03:44.059Z,13.97
2023-10-24T20:06:12.492Z,12.93
2023-10-24T20:08:44.634Z,13.45
2023-10-24T20:12:32.334Z,13.65
2023-10-24T20:13:59.709Z,15.35
2023-10-24T20:16:31.600Z,15.15
2023-10-24T20:19:02.575Z,15.48
2023-10-24T20:21:32.536Z,15.80
2023-10-24T20:24:03.221Z,16.25
2023-10-24T20:26:31.054Z,15.50
2023-10-24T20:29:00.097Z,15.02
2023-10-24T20:31:26.930Z,15.75
2023-10-24T20:33:54.292Z,16.58
2023-10-24T20:36:21.028Z,15.82
2023-10-24T20:38:47.747Z,15.80
2023-10-24T20:41:16.476Z,14.77
2023-10-24T20:43:43.188Z,16.48
2023-10-24T20:46:10.726Z,15.48
2023-10-24T20:48:37.587Z,15.73
2023-10-24T20:51:04.396Z,15.98
2023-10-24T20:53:31.272Z,14.88
2023-10-24T20:56:01.051Z,16.02
2023-10-24T21:00:54.736Z,16.33
2023-10-24T21:03:21.597Z,18.05
2023-10-24T21:05:48.999Z,18.00
2023-10-24T21:08:15.780Z,16.10
2023-10-24T21:10:45.477Z,16.10
2023-10-24T21:13:13.177Z,17.20
2023-10-24T21:15:41.589Z,16.23
2023-10-24T21:18:08.454Z,17.52
2023-10-24T21:20:38.540Z,16.23
2023-10-24T21:23:05.332Z,15.77
2023-10-24T21:25:32.118Z,15.35
2023-10-24T21:27:58.972Z,16.25
2023-10-24T21:30:25.755Z,15.77
2023-10-24T21:32:52.604Z,15.38
2023-10-24T21:35:19.279Z,15.13
2023-10-24T21:37:46.107Z,15.25
2023-10-24T21:40:14.490Z,14.68
2023-10-24T21:42:42.142Z,15.32
2023-10-24T21:45:09.224Z,15.23
2023-10-24T21:47:36.285Z,15.13
2023-10-24T21:50:03.371Z,14.18
2023-10-24T21:52:30.229Z,15.55
2023-10-24T21:54:57.260Z,15.20
2023-10-24T21:57:24.054Z,14.82
2023-10-24T21:59:53.252Z,15.48
2023-10-24T22:02:20.268Z,15.65
2023-10-24T22:04:47.121Z,15.10
2023-10-24T22:07:13.851Z,15.95
2023-10-24T22:09:40.852Z,17.75
2023-10-24T22:12:08.192Z,15.93
2023-10-24T22:14:35.278Z,16.17
2023-10-24T22:17:02.230Z,16.38
2023-10-24T22:19:29.049Z,14.40
2023-10-24T22:21:55.786Z,16.23
2023-10-24T22:24:22.570Z,15.25
2023-10-24T22:26:49.293Z,15.75
2023-10-24T22:29:16.910Z,16.15
2023-10-24T22:31:43.684Z,15.13
2023-10-24T22:34:11.265Z,12.48
2023-10-24T22:36:38.046Z,12.68
2023-10-24T22:39:05.429Z,11.60
2023-10-24T22:41:32.512Z,11.35
2023-10-24T22:43:59.236Z,10.73
2023-10-24T22:46:26.142Z,9.50
2023-10-24T22:48:52.951Z,11.93
2023-10-24T22:51:20.081Z,10.45
2023-10-24T22:53:47.033Z,10.90
2023-10-24T22:56:14.111Z,9.90
2023-10-24T22:58:40.853Z,9.27
2023-10-24T23:01:11.991Z,9.10
2023-10-24T23:03:39.060Z,9.48
2023-10-24T23:06:05.843Z,8.98
2023-10-24T23:08:32.616Z,9.77
2023-10-24T23:11:09.069Z,9.20
2023-10-24T23:13:36.477Z,11.23
2023-10-24T23:16:08.990Z,8.52
2023-10-24T23:18:41.730Z,9.10
2023-10-24T23:21:08.600Z,8.80
2023-10-24T23:23:38.120Z,8.60
2023-10-24T23:26:08.943Z,9.18
2023-10-24T23:28:35.798Z,8.27
2023-10-24T23:31:02.665Z,7.78
2023-10-24T23:33:29.459Z,8.45
2023-10-24T23:35:56.210Z,8.75
2023-10-24T23:38:23.614Z,8.45
2023-10-24T23:40:50.427Z,8.18
2023-10-24T23:43:17.128Z,8.43
2023-10-24T23:45:44.148Z,7.70
2023-10-24T23:48:11.050Z,7.43
2023-10-24T23:50:38.290Z,7.75
2023-10-24T23:53:06.813Z,7.78
2023-10-24T23:55:37.242Z,7.93
2023-10-24T23:58:05.460Z,8.15
